Terminal Aerodrome Forecast
Issued by NWS Cleveland, OH

Home | Current Version | Previous Version | Graphics & Text | Print | Product List | Glossary On
Versions: 1 2 3 4 5 6 7 8 9 10 11 12 13 14 15 16 17 18
000
FTUS41 KCLE 262117 AAB
TAFMFD
TAF AMD
KMFD 262117Z 2621/2718 16014G22KT P6SM BKN045
      TEMPO 2621/2624 3SM -TSRA OVC035CB
     FM270000 19012KT P6SM BKN080
     FM270800 20012KT 5SM BR BKN008
     FM271300 21013KT P6SM SCT015 BKN035=

USA.gov is the U.S. government's official web portal to all federal, state and local government web resources and services.